Parkville, Missouri
Current Conditions -  °F | °C
As of 5:54 AM on Thursday 27 Nov 2014 (Local Time) from KMKC Reporting Station
Overcast Overcast  
Wind Chill: 19°   Ceiling: 1800
Heat Index: 27°   Visibility: 10mi
Dew Point: 20°   Wind: 7mph
Humidity: 75%   Direction: 350°N
Pressure: 30.49"   Gusts: NA
Location:  39.2125°N, 94.6296°W
Report Text: KMKC 271154Z 35006KT 10SM OVC018 M03/M07 A3049 RMK AO2 SLP333 T10281067 11017 21028 51006
Loading
Personal Weather Stations






























Interactive Weather Map New forecast layout! Learn more

10-Day Weather Forecast

Advertisements
Track Severe Weather on mobile